»·PEaware :: WAT234 KCMA-KDLO

WAT234 :: KCMA-KDLO

FLIGHT INFORMATION

Flight Status: Arrived
Operator:
Walker Air Transport
More flights by this operator :: More flights under this callsign
Pilot: Eduardo Elias G. (24838)
Aircraft: CIRRUS SR-22
(SR22)
More flights by this aircraft type
Origin: KCMA Camarillo
United States
Destination: KDLO Delano Mun
United States
More flights between these airports :: More routes between these airports
Route: DCT
File this flight plan on PilotEdge
Remarks:
Altitude:
(Current/Filed)
0ft
Speed:
(Current/Filed)
160kts
Departed: 23-Sep-20 09:14 PM
Arrived: 23-Sep-20 09:58 PM
Distance/Time
Traveled:
92nm/0:44
Distance/Time
To Go:
Arrived

Flight Plot

Page will automatically refresh every two minutes.

Flight plan parsing failed; only flown route is shown


Map Options




Map Legend


Flown Route
Filed Route
Departure Airport
Arrival Airport
Navaid (VOR, NDB)
Fix

Horizontal Profiles

Position Reports

Time Latitude Longitude Heading Altitude Ground
Speed
23-Sep-20 21:06 34.210778 -119.093324 0 77ft 0kts
23-Sep-20 21:07 34.210800 -119.093325 2 77ft 0kts
23-Sep-20 21:08 34.210984 -119.090417 91 77ft 15kts
23-Sep-20 21:09 34.210943 -119.085071 90 77ft 0kts
23-Sep-20 21:10 34.212010 -119.084622 0 77ft 11kts
23-Sep-20 21:11 34.212759 -119.084623 357 77ft 0kts
23-Sep-20 21:12 34.213687 -119.085057 270 77ft 6kts
23-Sep-20 21:13 34.220091 -119.115615 329 778ft 131kts
23-Sep-20 21:14 34.253307 -119.134283 331 2204ft 125kts
23-Sep-20 21:15 34.282046 -119.156604 325 3471ft 122kts
23-Sep-20 21:16 34.311000 -119.180037 325 4547ft 128kts
23-Sep-20 21:17 34.341062 -119.204545 326 5533ft 133kts
23-Sep-20 21:18 34.372081 -119.229998 326 6424ft 137kts
23-Sep-20 21:19 34.403986 -119.256092 326 7242ft 140kts
23-Sep-20 21:20 34.436499 -119.282537 326 7993ft 141kts
23-Sep-20 21:21 34.469770 -119.309427 326 8665ft 144kts
23-Sep-20 21:22 34.503659 -119.336660 326 9279ft 146kts
23-Sep-20 21:23 34.537899 -119.364126 326 9839ft 149kts
23-Sep-20 21:24 34.572704 -119.392015 326 10345ft 151kts
23-Sep-20 21:25 34.613022 -119.405040 11 10508ft 165kts
23-Sep-20 21:26 34.659492 -119.396097 7 10500ft 171kts
23-Sep-20 21:27 34.707293 -119.388881 6 10445ft 173kts
23-Sep-20 21:28 34.755409 -119.381875 6 10452ft 172kts
23-Sep-20 21:29 34.803127 -119.374946 6 10466ft 172kts
23-Sep-20 21:30 34.850826 -119.368009 6 10480ft 172kts
23-Sep-20 21:31 34.898420 -119.361099 6 10490ft 172kts
23-Sep-20 21:32 34.946141 -119.354155 6 10490ft 173kts
23-Sep-20 21:33 34.993965 -119.347185 6 10490ft 173kts
23-Sep-20 21:34 35.041649 -119.340232 5 10499ft 173kts
23-Sep-20 21:35 35.089451 -119.333249 6 10499ft 173kts
23-Sep-20 21:36 35.137231 -119.326247 5 10499ft 172kts
23-Sep-20 21:37 35.184955 -119.319270 5 10497ft 173kts
23-Sep-20 21:38 35.234971 -119.311916 5 9846ft 185kts
23-Sep-20 21:39 35.286451 -119.304336 5 9151ft 187kts
23-Sep-20 21:40 35.337912 -119.296781 5 8453ft 186kts
23-Sep-20 21:41 35.389233 -119.289215 5 7748ft 183kts
23-Sep-20 21:42 35.439646 -119.281803 5 7043ft 181kts
23-Sep-20 21:43 35.489565 -119.274443 5 6340ft 179kts
23-Sep-20 21:44 35.537082 -119.267416 5 5453ft 160kts
23-Sep-20 21:45 35.580248 -119.261041 5 4325ft 152kts
23-Sep-20 21:46 35.622428 -119.254777 6 3212ft 151kts
23-Sep-20 21:47 35.662497 -119.244029 17 2114ft 143kts
23-Sep-20 21:48 35.692427 -119.216665 359 1334ft 133kts
23-Sep-20 21:49 35.724759 -119.226606 338 789ft 92kts
23-Sep-20 21:50 35.747868 -119.237785 337 339ft 112kts
23-Sep-20 21:51 35.773804 -119.264274 260 1360ft 145kts
23-Sep-20 21:52 35.747407 -119.293877 177 1358ft 133kts
23-Sep-20 21:53 35.713192 -119.281611 153 1228ft 129kts
23-Sep-20 21:54 35.701739 -119.253733 68 1257ft 110kts
23-Sep-20 21:55 35.714559 -119.222870 28 716ft 97kts
23-Sep-20 21:56 35.738004 -119.232916 338 340ft 87kts
23-Sep-20 21:57 35.745325 -119.238497 302 317ft 8kts
23-Sep-20 21:58 35.745662 -119.239043 101 317ft 0kts
23-Sep-20 21:59 35.745662 -119.239043 101 317ft 0kts
23-Sep-20 22:00 35.745662 -119.239043 101 317ft 0kts
23-Sep-20 22:01 35.745662 -119.239043 101 317ft 0kts

Navigation Log

Ident Type
Flight plan parsing failed, navigation log unavailable